Terminal Aerodrome Forecast
Issued by NWS

Current Version | Previous Version | Graphics & Text | Print | Product List | Glossary On
Versions: 1 2 3 4 5 6 7 8 9 10 11 12 13 14 15 16 17 18 19 20 21 22 23 24
439
FTUS41 KILN 202340
TAFLUK
TAF
KLUK 202340Z 2100/2124 21006KT P6SM BKN045
     FM210700 VRB02KT P6SM BKN030
      TEMPO 2109/2113 5SM BR BKN015 OVC040
     FM211500 18007KT P6SM SCT045 BKN200=

USA.gov is the U.S. government's official web portal to all federal, state and local government web resources and services.